sensor_id;sensor_type;location;lat;lon;timestamp;pressure;altitude;pressure_sealevel;temperature;humidity
78206;BME280;67480;48.920;12.880;2023-05-14T00:00:11;97071.28;;;11.03;54.25
78206;BME280;67480;48.920;12.880;2023-05-14T00:02:37;97079.06;;;11.14;53.92
78206;BME280;67480;48.920;12.880;2023-05-14T00:05:03;97085.28;;;11.14;53.87
78206;BME280;67480;48.920;12.880;2023-05-14T00:07:28;97070.97;;;11.05;54.06
78206;BME280;67480;48.920;12.880;2023-05-14T00:09:55;97072.59;;;11.15;53.88
78206;BME280;67480;48.920;12.880;2023-05-14T00:12:21;97076.22;;;11.19;53.57
78206;BME280;67480;48.920;12.880;2023-05-14T00:14:46;97073.38;;;11.15;53.93
78206;BME280;67480;48.920;12.880;2023-05-14T00:17:11;97072.91;;;11.13;53.67
78206;BME280;67480;48.920;12.880;2023-05-14T00:19:37;97071.50;;;11.16;53.65
78206;BME280;67480;48.920;12.880;2023-05-14T00:22:06;97066.22;;;11.02;54.44
78206;BME280;67480;48.920;12.880;2023-05-14T00:24:31;97061.59;;;10.94;54.84
78206;BME280;67480;48.920;12.880;2023-05-14T00:26:56;97054.19;;;10.99;54.68
78206;BME280;67480;48.920;12.880;2023-05-14T00:29:21;97055.91;;;11.04;54.52
78206;BME280;67480;48.920;12.880;2023-05-14T00:31:47;97058.59;;;10.95;54.37
78206;BME280;67480;48.920;12.880;2023-05-14T00:34:12;97056.22;;;10.94;54.24
78206;BME280;67480;48.920;12.880;2023-05-14T00:36:37;97057.81;;;10.95;54.70
78206;BME280;67480;48.920;12.880;2023-05-14T00:39:02;97063.78;;;10.83;54.87
78206;BME280;67480;48.920;12.880;2023-05-14T00:41:28;97060.31;;;10.91;54.81
78206;BME280;67480;48.920;12.880;2023-05-14T00:43:53;97058.41;;;10.83;54.75
78206;BME280;67480;48.920;12.880;2023-05-14T00:46:18;97066.47;;;10.83;54.96
78206;BME280;67480;48.920;12.880;2023-05-14T00:48:44;97065.53;;;10.87;54.75
78206;BME280;67480;48.920;12.880;2023-05-14T00:51:09;97067.88;;;10.80;55.11
78206;BME280;67480;48.920;12.880;2023-05-14T00:53:35;97067.28;;;10.83;54.96
78206;BME280;67480;48.920;12.880;2023-05-14T00:56:01;97073.78;;;10.91;54.89
78206;BME280;67480;48.920;12.880;2023-05-14T00:58:26;97063.97;;;10.86;55.40
78206;BME280;67480;48.920;12.880;2023-05-14T01:00:51;97066.16;;;10.84;55.28
78206;BME280;67480;48.920;12.880;2023-05-14T01:03:17;97066.59;;;10.78;55.24
78206;BME280;67480;48.920;12.880;2023-05-14T01:05:46;97063.44;;;10.76;55.56
78206;BME280;67480;48.920;12.880;2023-05-14T01:10:50;97059.41;;;10.56;56.31
78206;BME280;67480;48.920;12.880;2023-05-14T01:13:40;97066.03;;;10.49;56.21
78206;BME280;67480;48.920;12.880;2023-05-14T01:16:11;97060.56;;;10.32;56.86
78206;BME280;67480;48.920;12.880;2023-05-14T01:18:39;97055.94;;;10.24;57.32
78206;BME280;67480;48.920;12.880;2023-05-14T01:21:17;97055.97;;;10.01;58.07
78206;BME280;67480;48.920;12.880;2023-05-14T01:23:44;97054.59;;;10.12;57.74
78206;BME280;67480;48.920;12.880;2023-05-14T01:26:09;97052.75;;;10.22;57.05
78206;BME280;67480;48.920;12.880;2023-05-14T01:28:35;97053.56;;;10.22;56.76
78206;BME280;67480;48.920;12.880;2023-05-14T01:31:13;97053.06;;;10.20;56.78
78206;BME280;67480;48.920;12.880;2023-05-14T01:33:42;97055.31;;;10.27;56.98
78206;BME280;67480;48.920;12.880;2023-05-14T01:36:09;97050.59;;;10.32;56.76
78206;BME280;67480;48.920;12.880;2023-05-14T01:38:35;97042.72;;;10.36;56.63
78206;BME280;67480;48.920;12.880;2023-05-14T01:41:01;97045.09;;;10.38;56.57
78206;BME280;67480;48.920;12.880;2023-05-14T01:43:27;97039.22;;;10.36;56.82
78206;BME280;67480;48.920;12.880;2023-05-14T01:45:53;97032.88;;;10.31;56.63
78206;BME280;67480;48.920;12.880;2023-05-14T01:48:19;97035.72;;;10.35;56.31
78206;BME280;67480;48.920;12.880;2023-05-14T01:50:45;97031.13;;;10.36;56.31
78206;BME280;67480;48.920;12.880;2023-05-14T01:53:10;97022.59;;;10.33;56.21
78206;BME280;67480;48.920;12.880;2023-05-14T01:55:35;97027.03;;;10.29;56.14
78206;BME280;67480;48.920;12.880;2023-05-14T01:58:01;97032.25;;;10.34;56.47
78206;BME280;67480;48.920;12.880;2023-05-14T02:00:26;97017.38;;;10.37;56.06
78206;BME280;67480;48.920;12.880;2023-05-14T02:02:51;97022.63;;;10.42;55.88
78206;BME280;67480;48.920;12.880;2023-05-14T02:05:17;97021.06;;;10.41;56.17
78206;BME280;67480;48.920;12.880;2023-05-14T02:07:42;97023.44;;;10.51;56.07
78206;BME280;67480;48.920;12.880;2023-05-14T02:10:08;97021.53;;;10.52;55.92
78206;BME280;67480;48.920;12.880;2023-05-14T02:12:34;97022.66;;;10.51;56.30
78206;BME280;67480;48.920;12.880;2023-05-14T02:14:59;97023.94;;;10.53;56.08
78206;BME280;67480;48.920;12.880;2023-05-14T02:17:25;97013.16;;;10.53;56.03
78206;BME280;67480;48.920;12.880;2023-05-14T02:19:50;97012.84;;;10.55;55.71
78206;BME280;67480;48.920;12.880;2023-05-14T02:22:16;97014.91;;;10.49;56.17
78206;BME280;67480;48.920;12.880;2023-05-14T02:24:41;97008.19;;;10.29;56.71
78206;BME280;67480;48.920;12.880;2023-05-14T02:27:06;97005.94;;;10.23;57.19
78206;BME280;67480;48.920;12.880;2023-05-14T02:29:32;97003.38;;;10.18;56.84
78206;BME280;67480;48.920;12.880;2023-05-14T02:31:57;97011.00;;;10.24;56.20
78206;BME280;67480;48.920;12.880;2023-05-14T02:34:23;97002.63;;;10.26;56.68
78206;BME280;67480;48.920;12.880;2023-05-14T02:36:48;97007.06;;;10.30;56.46
78206;BME280;67480;48.920;12.880;2023-05-14T02:39:14;97002.50;;;10.31;56.38
78206;BME280;67480;48.920;12.880;2023-05-14T02:41:39;97002.84;;;10.38;56.10
78206;BME280;67480;48.920;12.880;2023-05-14T02:44:04;96999.81;;;10.31;56.78
78206;BME280;67480;48.920;12.880;2023-05-14T02:46:30;97004.06;;;10.32;56.80
78206;BME280;67480;48.920;12.880;2023-05-14T02:48:56;97002.81;;;10.29;56.66
78206;BME280;67480;48.920;12.880;2023-05-14T02:51:21;96998.19;;;10.21;57.06
78206;BME280;67480;48.920;12.880;2023-05-14T02:53:47;96994.44;;;10.00;56.84
78206;BME280;67480;48.920;12.880;2023-05-14T02:56:12;96988.75;;;10.01;57.43
78206;BME280;67480;48.920;12.880;2023-05-14T02:58:38;96991.00;;;10.08;57.13
78206;BME280;67480;48.920;12.880;2023-05-14T03:01:03;96988.31;;;10.08;57.24
78206;BME280;67480;48.920;12.880;2023-05-14T03:03:29;96980.13;;;10.13;56.77
78206;BME280;67480;48.920;12.880;2023-05-14T03:05:54;96988.34;;;10.17;56.95
78206;BME280;67480;48.920;12.880;2023-05-14T03:08:20;96983.59;;;10.13;57.18
78206;BME280;67480;48.920;12.880;2023-05-14T03:10:45;96987.66;;;10.02;56.81
78206;BME280;67480;48.920;12.880;2023-05-14T03:13:10;96981.59;;;9.96;57.34
78206;BME280;67480;48.920;12.880;2023-05-14T03:15:36;96973.38;;;9.93;57.42
78206;BME280;67480;48.920;12.880;2023-05-14T03:18:01;96978.44;;;9.94;57.16
78206;BME280;67480;48.920;12.880;2023-05-14T03:20:26;96980.50;;;9.97;56.98
78206;BME280;67480;48.920;12.880;2023-05-14T03:22:52;96981.28;;;9.98;57.39
78206;BME280;67480;48.920;12.880;2023-05-14T03:25:18;96982.13;;;10.07;56.72
78206;BME280;67480;48.920;12.880;2023-05-14T03:27:43;96975.22;;;10.15;56.57
78206;BME280;67480;48.920;12.880;2023-05-14T03:30:09;96974.53;;;10.01;56.88
78206;BME280;67480;48.920;12.880;2023-05-14T03:32:35;96984.34;;;10.05;56.57
78206;BME280;67480;48.920;12.880;2023-05-14T03:35:01;96983.75;;;10.08;57.10
78206;BME280;67480;48.920;12.880;2023-05-14T03:37:27;96980.22;;;10.08;56.67
78206;BME280;67480;48.920;12.880;2023-05-14T03:39:52;96982.81;;;10.13;56.74
78206;BME280;67480;48.920;12.880;2023-05-14T03:42:17;96978.69;;;10.15;56.35
78206;BME280;67480;48.920;12.880;2023-05-14T03:44:43;96986.44;;;10.17;56.73
78206;BME280;67480;48.920;12.880;2023-05-14T03:47:08;96991.34;;;10.15;56.82
78206;BME280;67480;48.920;12.880;2023-05-14T03:49:33;96984.53;;;10.18;56.56
78206;BME280;67480;48.920;12.880;2023-05-14T03:51:59;96982.69;;;10.27;56.42
78206;BME280;67480;48.920;12.880;2023-05-14T03:54:25;96993.31;;;10.32;56.14
78206;BME280;67480;48.920;12.880;2023-05-14T03:56:50;96980.97;;;10.31;56.13
78206;BME280;67480;48.920;12.880;2023-05-14T03:59:15;96989.38;;;10.38;56.40
78206;BME280;67480;48.920;12.880;2023-05-14T04:01:41;96982.72;;;10.36;56.20
78206;BME280;67480;48.920;12.880;2023-05-14T04:04:06;96981.31;;;10.38;55.92
78206;BME280;67480;48.920;12.880;2023-05-14T04:06:32;96990.13;;;10.21;56.58
78206;BME280;67480;48.920;12.880;2023-05-14T04:08:57;96984.78;;;10.39;55.97
78206;BME280;67480;48.920;12.880;2023-05-14T04:11:22;96982.91;;;10.39;55.73
78206;BME280;67480;48.920;12.880;2023-05-14T04:13:48;96983.31;;;10.24;56.30
78206;BME280;67480;48.920;12.880;2023-05-14T04:16:13;96985.72;;;10.34;56.12
78206;BME280;67480;48.920;12.880;2023-05-14T04:18:39;96983.69;;;10.40;56.39
78206;BME280;67480;48.920;12.880;2023-05-14T04:21:04;96978.34;;;10.48;55.62
78206;BME280;67480;48.920;12.880;2023-05-14T04:23:29;96980.41;;;10.51;56.25
78206;BME280;67480;48.920;12.880;2023-05-14T04:25:56;96979.94;;;10.49;56.18
78206;BME280;67480;48.920;12.880;2023-05-14T04:28:21;96974.06;;;10.47;56.30
78206;BME280;67480;48.920;12.880;2023-05-14T04:30:47;96975.78;;;10.43;56.26
78206;BME280;67480;48.920;12.880;2023-05-14T04:33:12;96973.09;;;10.43;55.78
78206;BME280;67480;48.920;12.880;2023-05-14T04:35:38;96980.06;;;10.44;56.10
78206;BME280;67480;48.920;12.880;2023-05-14T04:38:03;96965.34;;;10.42;55.81
78206;BME280;67480;48.920;12.880;2023-05-14T04:40:28;96963.25;;;10.39;55.98
78206;BME280;67480;48.920;12.880;2023-05-14T04:42:55;96970.25;;;10.48;56.10
78206;BME280;67480;48.920;12.880;2023-05-14T04:45:20;96963.16;;;10.52;55.92
78206;BME280;67480;48.920;12.880;2023-05-14T04:47:46;96972.03;;;10.62;56.17
78206;BME280;67480;48.920;12.880;2023-05-14T04:50:11;96972.50;;;10.55;56.11
78206;BME280;67480;48.920;12.880;2023-05-14T04:52:37;96969.63;;;10.51;56.14
78206;BME280;67480;48.920;12.880;2023-05-14T04:55:03;96961.91;;;10.67;55.26
78206;BME280;67480;48.920;12.880;2023-05-14T04:57:28;96976.31;;;10.63;55.23
78206;BME280;67480;48.920;12.880;2023-05-14T04:59:54;96965.41;;;10.68;55.74
78206;BME280;67480;48.920;12.880;2023-05-14T05:02:19;96968.91;;;10.77;55.77
78206;BME280;67480;48.920;12.880;2023-05-14T05:04:44;96965.16;;;10.87;55.50
78206;BME280;67480;48.920;12.880;2023-05-14T05:07:11;96973.53;;;10.85;55.39
78206;BME280;67480;48.920;12.880;2023-05-14T05:09:37;96975.28;;;10.99;55.54
78206;BME280;67480;48.920;12.880;2023-05-14T05:12:02;96979.88;;;10.98;55.36
78206;BME280;67480;48.920;12.880;2023-05-14T05:14:28;96980.22;;;10.97;55.38
78206;BME280;67480;48.920;12.880;2023-05-14T05:16:53;96982.59;;;10.98;54.45
78206;BME280;67480;48.920;12.880;2023-05-14T05:19:18;96972.28;;;11.00;54.40
78206;BME280;67480;48.920;12.880;2023-05-14T05:21:44;96968.34;;;10.98;54.69
78206;BME280;67480;48.920;12.880;2023-05-14T05:24:09;96966.59;;;10.93;54.59
78206;BME280;67480;48.920;12.880;2023-05-14T05:26:35;96966.75;;;10.97;54.93
78206;BME280;67480;48.920;12.880;2023-05-14T05:29:03;96968.81;;;11.00;55.27
78206;BME280;67480;48.920;12.880;2023-05-14T05:31:29;96967.38;;;11.02;54.82
78206;BME280;67480;48.920;12.880;2023-05-14T05:33:55;96973.84;;;10.93;54.63
78206;BME280;67480;48.920;12.880;2023-05-14T05:36:20;96970.38;;;11.01;54.96
78206;BME280;67480;48.920;12.880;2023-05-14T05:38:45;96976.09;;;11.08;54.90
78206;BME280;67480;48.920;12.880;2023-05-14T05:41:11;96975.78;;;11.18;54.48
78206;BME280;67480;48.920;12.880;2023-05-14T05:43:36;96973.56;;;11.03;54.58
78206;BME280;67480;48.920;12.880;2023-05-14T05:46:01;96979.91;;;11.16;54.94
78206;BME280;67480;48.920;12.880;2023-05-14T05:48:27;96978.47;;;11.10;54.54
78206;BME280;67480;48.920;12.880;2023-05-14T05:50:52;96971.81;;;11.24;54.03
78206;BME280;67480;48.920;12.880;2023-05-14T05:53:17;96976.09;;;11.34;54.41
78206;BME280;67480;48.920;12.880;2023-05-14T05:55:43;96970.53;;;11.22;53.60
78206;BME280;67480;48.920;12.880;2023-05-14T05:58:08;96966.25;;;11.38;53.22
78206;BME280;67480;48.920;12.880;2023-05-14T06:00:33;96970.38;;;11.44;53.65
78206;BME280;67480;48.920;12.880;2023-05-14T06:02:59;96969.28;;;11.46;53.78
78206;BME280;67480;48.920;12.880;2023-05-14T06:05:25;96970.50;;;11.48;53.84
78206;BME280;67480;48.920;12.880;2023-05-14T06:07:50;96970.50;;;11.48;54.05
78206;BME280;67480;48.920;12.880;2023-05-14T06:10:17;96968.31;;;11.50;53.65
78206;BME280;67480;48.920;12.880;2023-05-14T06:12:43;96979.41;;;11.66;54.47
78206;BME280;67480;48.920;12.880;2023-05-14T06:15:08;96981.75;;;11.76;53.22
78206;BME280;67480;48.920;12.880;2023-05-14T06:17:34;96982.97;;;11.96;52.79
78206;BME280;67480;48.920;12.880;2023-05-14T06:19:59;96977.41;;;12.10;51.95
78206;BME280;67480;48.920;12.880;2023-05-14T06:22:24;96973.78;;;12.36;51.08
78206;BME280;67480;48.920;12.880;2023-05-14T06:24:50;96974.78;;;12.61;51.19
78206;BME280;67480;48.920;12.880;2023-05-14T06:27:15;96977.75;;;12.68;50.79
78206;BME280;67480;48.920;12.880;2023-05-14T06:29:40;96981.97;;;12.78;49.91
78206;BME280;67480;48.920;12.880;2023-05-14T06:32:06;96981.34;;;13.02;50.62
78206;BME280;67480;48.920;12.880;2023-05-14T06:34:31;96981.69;;;13.22;50.79
78206;BME280;67480;48.920;12.880;2023-05-14T06:36:57;96969.56;;;13.07;49.83
78206;BME280;67480;48.920;12.880;2023-05-14T06:39:22;96974.34;;;13.31;50.21
78206;BME280;67480;48.920;12.880;2023-05-14T06:41:48;96972.19;;;13.16;52.07
78206;BME280;67480;48.920;12.880;2023-05-14T06:44:14;96976.16;;;12.97;53.79
78206;BME280;67480;48.920;12.880;2023-05-14T06:46:40;96979.59;;;12.77;54.65
78206;BME280;67480;48.920;12.880;2023-05-14T06:49:05;96969.41;;;12.82;52.30
78206;BME280;67480;48.920;12.880;2023-05-14T06:51:30;96967.78;;;12.90;52.41
78206;BME280;67480;48.920;12.880;2023-05-14T06:53:56;96981.72;;;12.71;55.19
78206;BME280;67480;48.920;12.880;2023-05-14T06:56:22;96983.47;;;12.37;56.60
78206;BME280;67480;48.920;12.880;2023-05-14T06:58:47;96978.91;;;12.59;57.06
78206;BME280;67480;48.920;12.880;2023-05-14T07:01:13;96981.09;;;12.65;56.04
78206;BME280;67480;48.920;12.880;2023-05-14T07:03:38;96985.56;;;12.91;55.84
78206;BME280;67480;48.920;12.880;2023-05-14T07:06:04;96988.38;;;12.95;56.22
78206;BME280;67480;48.920;12.880;2023-05-14T07:08:30;96992.22;;;12.94;56.31
78206;BME280;67480;48.920;12.880;2023-05-14T07:10:56;96990.44;;;13.28;55.79
78206;BME280;67480;48.920;12.880;2023-05-14T07:13:21;96986.50;;;13.16;54.86
78206;BME280;67480;48.920;12.880;2023-05-14T07:15:47;96990.25;;;13.24;55.45
78206;BME280;67480;48.920;12.880;2023-05-14T07:18:12;96987.09;;;13.22;54.53
78206;BME280;67480;48.920;12.880;2023-05-14T07:20:37;96977.13;;;12.93;56.12
78206;BME280;67480;48.920;12.880;2023-05-14T07:23:03;96973.91;;;13.20;54.98
78206;BME280;67480;48.920;12.880;2023-05-14T07:25:28;96961.03;;;13.59;54.52
78206;BME280;67480;48.920;12.880;2023-05-14T07:27:53;96963.69;;;13.80;54.30
78206;BME280;67480;48.920;12.880;2023-05-14T07:30:19;96950.63;;;13.95;52.80
78206;BME280;67480;48.920;12.880;2023-05-14T07:32:45;96950.41;;;14.00;52.41
78206;BME280;67480;48.920;12.880;2023-05-14T07:35:10;96942.31;;;14.00;51.54
78206;BME280;67480;48.920;12.880;2023-05-14T07:37:36;96941.31;;;14.29;51.20
78206;BME280;67480;48.920;12.880;2023-05-14T07:40:01;96948.00;;;14.44;50.21
78206;BME280;67480;48.920;12.880;2023-05-14T07:42:27;96952.94;;;14.54;49.38
78206;BME280;67480;48.920;12.880;2023-05-14T07:44:52;96948.19;;;14.64;49.90
78206;BME280;67480;48.920;12.880;2023-05-14T07:47:17;96947.56;;;14.95;50.27
78206;BME280;67480;48.920;12.880;2023-05-14T07:49:43;96940.28;;;14.83;49.71
78206;BME280;67480;48.920;12.880;2023-05-14T07:52:08;96941.63;;;14.89;49.55
78206;BME280;67480;48.920;12.880;2023-05-14T07:54:34;96939.91;;;14.97;50.07
78206;BME280;67480;48.920;12.880;2023-05-14T07:56:59;96936.50;;;15.41;48.98
78206;BME280;67480;48.920;12.880;2023-05-14T07:59:24;96929.63;;;15.31;48.61
78206;BME280;67480;48.920;12.880;2023-05-14T08:01:50;96930.66;;;15.26;47.83
78206;BME280;67480;48.920;12.880;2023-05-14T08:04:15;96932.78;;;15.61;48.11
78206;BME280;67480;48.920;12.880;2023-05-14T08:06:40;96930.06;;;15.61;47.43
78206;BME280;67480;48.920;12.880;2023-05-14T08:09:06;96930.72;;;15.71;47.45
78206;BME280;67480;48.920;12.880;2023-05-14T08:11:33;96934.75;;;15.93;47.64
78206;BME280;67480;48.920;12.880;2023-05-14T08:13:58;96925.91;;;16.12;47.00
78206;BME280;67480;48.920;12.880;2023-05-14T08:16:23;96929.47;;;16.64;45.34
78206;BME280;67480;48.920;12.880;2023-05-14T08:18:50;96929.50;;;16.48;45.71
78206;BME280;67480;48.920;12.880;2023-05-14T08:21:15;96927.03;;;16.59;45.54
78206;BME280;67480;48.920;12.880;2023-05-14T08:23:40;96932.91;;;16.29;45.35
78206;BME280;67480;48.920;12.880;2023-05-14T08:26:06;96929.41;;;16.28;45.82
78206;BME280;67480;48.920;12.880;2023-05-14T08:28:31;96928.06;;;16.70;45.74
78206;BME280;67480;48.920;12.880;2023-05-14T08:30:56;96922.88;;;17.00;44.37
78206;BME280;67480;48.920;12.880;2023-05-14T08:33:22;96916.03;;;17.45;43.59
78206;BME280;67480;48.920;12.880;2023-05-14T08:35:49;96926.59;;;17.70;42.71
78206;BME280;67480;48.920;12.880;2023-05-14T08:38:14;96922.25;;;17.26;43.49
78206;BME280;67480;48.920;12.880;2023-05-14T08:40:40;96920.84;;;16.78;45.71
78206;BME280;67480;48.920;12.880;2023-05-14T08:43:06;96919.03;;;17.40;44.28
78206;BME280;67480;48.920;12.880;2023-05-14T08:45:33;96906.00;;;16.91;46.18
78206;BME280;67480;48.920;12.880;2023-05-14T08:47:59;96905.63;;;16.38;46.03
78206;BME280;67480;48.920;12.880;2023-05-14T08:50:26;96909.28;;;16.29;45.66
78206;BME280;67480;48.920;12.880;2023-05-14T08:52:54;96907.97;;;16.07;46.13
78206;BME280;67480;48.920;12.880;2023-05-14T08:55:19;96905.25;;;16.07;46.91
78206;BME280;67480;48.920;12.880;2023-05-14T08:57:45;96904.38;;;16.35;45.87
78206;BME280;67480;48.920;12.880;2023-05-14T09:00:11;96911.19;;;16.45;45.49
78206;BME280;67480;48.920;12.880;2023-05-14T09:02:38;96904.53;;;16.78;44.92
78206;BME280;67480;48.920;12.880;2023-05-14T09:05:04;96898.63;;;17.50;44.51
78206;BME280;67480;48.920;12.880;2023-05-14T09:07:32;96894.53;;;19.51;41.08
78206;BME280;67480;48.920;12.880;2023-05-14T09:09:57;96891.50;;;21.29;38.13
78206;BME280;67480;48.920;12.880;2023-05-14T09:12:23;96901.19;;;23.43;33.92
78206;BME280;67480;48.920;12.880;2023-05-14T09:14:49;96897.56;;;24.13;32.95
78206;BME280;67480;48.920;12.880;2023-05-14T09:17:15;96909.06;;;24.95;31.32
78206;BME280;67480;48.920;12.880;2023-05-14T09:19:41;96893.53;;;25.97;28.36
78206;BME280;67480;48.920;12.880;2023-05-14T09:22:11;96888.50;;;25.34;28.85
78206;BME280;67480;48.920;12.880;2023-05-14T09:24:37;96884.84;;;24.75;29.75
78206;BME280;67480;48.920;12.880;2023-05-14T09:27:03;96878.63;;;23.73;31.08
78206;BME280;67480;48.920;12.880;2023-05-14T09:29:29;96883.31;;;23.02;33.25
78206;BME280;67480;48.920;12.880;2023-05-14T09:31:56;96874.09;;;22.06;33.54
78206;BME280;67480;48.920;12.880;2023-05-14T09:34:27;96867.72;;;21.52;34.00
78206;BME280;67480;48.920;12.880;2023-05-14T09:36:57;96866.84;;;21.15;34.74
78206;BME280;67480;48.920;12.880;2023-05-14T09:39:23;96864.31;;;20.15;37.19
78206;BME280;67480;48.920;12.880;2023-05-14T09:41:49;96859.41;;;19.87;36.97
78206;BME280;67480;48.920;12.880;2023-05-14T09:44:16;96854.47;;;19.58;38.78
78206;BME280;67480;48.920;12.880;2023-05-14T09:46:41;96850.09;;;19.50;38.45
78206;BME280;67480;48.920;12.880;2023-05-14T09:49:06;96841.44;;;18.77;39.46
78206;BME280;67480;48.920;12.880;2023-05-14T09:51:32;96846.16;;;18.23;40.98
78206;BME280;67480;48.920;12.880;2023-05-14T09:53:57;96845.56;;;17.60;41.40
78206;BME280;67480;48.920;12.880;2023-05-14T09:56:22;96841.38;;;17.89;40.96
78206;BME280;67480;48.920;12.880;2023-05-14T09:58:48;96838.50;;;18.05;40.63
78206;BME280;67480;48.920;12.880;2023-05-14T10:01:17;96841.38;;;17.89;40.11
78206;BME280;67480;48.920;12.880;2023-05-14T10:03:43;96838.47;;;17.13;41.88
78206;BME280;67480;48.920;12.880;2023-05-14T10:06:10;96838.09;;;17.57;41.10
78206;BME280;67480;48.920;12.880;2023-05-14T10:08:40;96840.78;;;19.17;38.77
78206;BME280;67480;48.920;12.880;2023-05-14T10:11:12;96836.47;;;19.50;39.86
78206;BME280;67480;48.920;12.880;2023-05-14T10:13:41;96833.84;;;20.13;38.09
78206;BME280;67480;48.920;12.880;2023-05-14T10:16:18;96826.06;;;20.78;37.64
78206;BME280;67480;48.920;12.880;2023-05-14T10:18:49;96828.88;;;20.99;37.73
78206;BME280;67480;48.920;12.880;2023-05-14T10:21:19;96829.22;;;20.90;35.98
78206;BME280;67480;48.920;12.880;2023-05-14T10:23:46;96829.91;;;20.07;37.09
78206;BME280;67480;48.920;12.880;2023-05-14T10:26:12;96830.31;;;19.19;38.78
78206;BME280;67480;48.920;12.880;2023-05-14T10:28:38;96826.22;;;18.72;38.93
78206;BME280;67480;48.920;12.880;2023-05-14T10:31:03;96828.63;;;18.77;39.10
78206;BME280;67480;48.920;12.880;2023-05-14T10:33:28;96819.41;;;18.89;39.17
78206;BME280;67480;48.920;12.880;2023-05-14T10:36:00;96825.13;;;19.52;37.45
78206;BME280;67480;48.920;12.880;2023-05-14T10:38:31;96826.66;;;21.41;37.40
78206;BME280;67480;48.920;12.880;2023-05-14T10:41:03;96827.88;;;21.90;35.45
78206;BME280;67480;48.920;12.880;2023-05-14T10:43:29;96821.19;;;21.70;35.38
78206;BME280;67480;48.920;12.880;2023-05-14T10:45:56;96816.47;;;22.35;34.50
78206;BME280;67480;48.920;12.880;2023-05-14T10:48:23;96824.91;;;26.02;28.72
78206;BME280;67480;48.920;12.880;2023-05-14T10:50:51;96830.81;;;27.81;25.99
78206;BME280;67480;48.920;12.880;2023-05-14T10:53:17;96814.19;;;26.52;26.38
78206;BME280;67480;48.920;12.880;2023-05-14T10:55:44;96812.22;;;27.49;27.39
78206;BME280;67480;48.920;12.880;2023-05-14T10:58:10;96811.34;;;28.18;26.62
78206;BME280;67480;48.920;12.880;2023-05-14T11:00:37;96814.41;;;30.24;22.77
78206;BME280;67480;48.920;12.880;2023-05-14T11:03:03;96816.94;;;28.89;23.80
78206;BME280;67480;48.920;12.880;2023-05-14T11:05:30;96815.44;;;26.71;25.79
78206;BME280;67480;48.920;12.880;2023-05-14T11:07:56;96798.38;;;23.47;30.13
78206;BME280;67480;48.920;12.880;2023-05-14T11:10:22;96791.03;;;22.34;32.20
78206;BME280;67480;48.920;12.880;2023-05-14T11:12:50;96791.06;;;21.70;33.46
78206;BME280;67480;48.920;12.880;2023-05-14T11:15:19;96785.88;;;20.96;34.67
78206;BME280;67480;48.920;12.880;2023-05-14T11:17:46;96774.31;;;20.47;35.51
78206;BME280;67480;48.920;12.880;2023-05-14T11:20:12;96780.63;;;19.40;37.73
78206;BME280;67480;48.920;12.880;2023-05-14T11:22:40;96772.91;;;19.08;38.23
78206;BME280;67480;48.920;12.880;2023-05-14T11:25:06;96770.22;;;19.57;37.77
78206;BME280;67480;48.920;12.880;2023-05-14T11:27:36;96778.94;;;19.32;39.73
78206;BME280;67480;48.920;12.880;2023-05-14T11:30:02;96771.16;;;18.93;41.49
78206;BME280;67480;48.920;12.880;2023-05-14T11:32:28;96763.06;;;18.66;43.22
78206;BME280;67480;48.920;12.880;2023-05-14T11:34:55;96768.94;;;18.38;44.29
78206;BME280;67480;48.920;12.880;2023-05-14T11:37:21;96765.88;;;18.40;42.57
78206;BME280;67480;48.920;12.880;2023-05-14T11:39:48;96761.06;;;18.02;41.92
78206;BME280;67480;48.920;12.880;2023-05-14T11:42:14;96773.94;;;18.06;41.52
78206;BME280;67480;48.920;12.880;2023-05-14T11:44:41;96768.22;;;17.88;42.16
78206;BME280;67480;48.920;12.880;2023-05-14T11:47:09;96770.81;;;17.80;42.83
78206;BME280;67480;48.920;12.880;2023-05-14T11:49:35;96783.13;;;17.24;44.24
78206;BME280;67480;48.920;12.880;2023-05-14T11:52:06;96786.13;;;17.39;45.37
78206;BME280;67480;48.920;12.880;2023-05-14T11:54:33;96789.38;;;17.05;45.01
78206;BME280;67480;48.920;12.880;2023-05-14T11:57:00;96796.84;;;16.69;45.51
78206;BME280;67480;48.920;12.880;2023-05-14T11:59:27;96808.16;;;16.00;46.90
78206;BME280;67480;48.920;12.880;2023-05-14T12:01:53;96816.75;;;15.39;49.05
78206;BME280;67480;48.920;12.880;2023-05-14T12:04:19;96819.94;;;14.84;52.55
78206;BME280;67480;48.920;12.880;2023-05-14T12:06:48;96821.91;;;14.71;55.52
78206;BME280;67480;48.920;12.880;2023-05-14T12:09:15;96826.31;;;14.64;56.92
78206;BME280;67480;48.920;12.880;2023-05-14T12:11:42;96824.88;;;14.66;57.33
78206;BME280;67480;48.920;12.880;2023-05-14T12:14:15;96809.38;;;14.67;57.69
78206;BME280;67480;48.920;12.880;2023-05-14T12:16:42;96807.44;;;14.39;58.11
78206;BME280;67480;48.920;12.880;2023-05-14T12:19:08;96812.50;;;14.53;58.39
78206;BME280;67480;48.920;12.880;2023-05-14T12:21:35;96805.69;;;14.59;57.74
78206;BME280;67480;48.920;12.880;2023-05-14T12:24:00;96807.09;;;14.81;57.36
78206;BME280;67480;48.920;12.880;2023-05-14T12:26:26;96789.03;;;15.01;56.43
78206;BME280;67480;48.920;12.880;2023-05-14T12:28:58;96794.84;;;15.16;56.68
78206;BME280;67480;48.920;12.880;2023-05-14T12:31:30;96793.59;;;15.13;56.64
78206;BME280;67480;48.920;12.880;2023-05-14T12:33:56;96790.72;;;15.06;57.30
78206;BME280;67480;48.920;12.880;2023-05-14T12:36:21;96788.34;;;15.04;57.06
78206;BME280;67480;48.920;12.880;2023-05-14T12:38:47;96787.97;;;14.90;57.10
78206;BME280;67480;48.920;12.880;2023-05-14T12:41:13;96780.84;;;14.85;56.80
78206;BME280;67480;48.920;12.880;2023-05-14T12:43:43;96788.06;;;14.65;56.83
78206;BME280;67480;48.920;12.880;2023-05-14T12:46:08;96782.84;;;14.72;56.01